createdAt,value
2022-11-30T00:00:43.675Z,39.80
2022-11-30T00:01:44.999Z,42.63
2022-11-30T00:02:46.723Z,45.27
2022-11-30T00:03:48.829Z,43.43
2022-11-30T00:04:50.238Z,42.57
2022-11-30T00:05:52.155Z,40.47
2022-11-30T00:06:57.186Z,39.80
2022-11-30T00:08:00.912Z,39.60
2022-11-30T00:09:02.410Z,43.20
2022-11-30T00:10:04.447Z,46.53
2022-11-30T00:11:09.750Z,43.30
2022-11-30T00:12:11.674Z,45.97
2022-11-30T00:13:13.117Z,39.00
2022-11-30T00:14:14.495Z,45.20
2022-11-30T00:15:17.463Z,40.73
2022-11-30T00:16:18.990Z,42.27
2022-11-30T00:17:20.554Z,46.60
2022-11-30T00:18:21.894Z,45.03
2022-11-30T00:19:23.205Z,43.00
2022-11-30T00:20:25.067Z,43.63
2022-11-30T00:21:26.515Z,44.77
2022-11-30T00:22:27.861Z,39.67
2022-11-30T00:23:33.330Z,40.37
2022-11-30T00:24:34.663Z,44.23
2022-11-30T00:25:37.129Z,44.07
2022-11-30T00:26:38.628Z,42.73
2022-11-30T00:27:40.017Z,43.70
2022-11-30T00:28:41.903Z,42.30
2022-11-30T00:29:43.312Z,40.47
2022-11-30T00:30:44.804Z,42.03
2022-11-30T00:31:46.209Z,42.17
2022-11-30T00:32:47.625Z,41.47
2022-11-30T00:33:48.969Z,41.37
2022-11-30T00:34:50.393Z,43.33
2022-11-30T00:35:59.310Z,42.73
2022-11-30T00:37:00.679Z,39.77
2022-11-30T00:38:03.112Z,41.00
2022-11-30T00:39:04.662Z,44.40
2022-11-30T00:40:06.367Z,43.77
2022-11-30T00:41:08.102Z,44.83
2022-11-30T00:42:09.479Z,39.50
2022-11-30T00:43:10.832Z,41.83
2022-11-30T00:44:12.256Z,45.30
2022-11-30T00:45:13.715Z,43.97
2022-11-30T00:46:15.195Z,43.07
2022-11-30T00:47:16.772Z,46.47
2022-11-30T00:48:18.205Z,41.70
2022-11-30T00:49:19.834Z,46.57
2022-11-30T00:50:21.404Z,45.77
2022-11-30T00:51:22.856Z,41.10
2022-11-30T00:52:24.344Z,45.47
2022-11-30T00:53:26.559Z,44.80
2022-11-30T00:54:28.066Z,48.47
2022-11-30T00:55:31.534Z,41.97
2022-11-30T00:56:33.068Z,39.93
2022-11-30T00:57:34.599Z,44.73
2022-11-30T00:58:36.058Z,49.47
2022-11-30T00:59:37.498Z,41.07
2022-11-30T01:00:38.997Z,39.93
2022-11-30T01:01:40.438Z,42.63
2022-11-30T01:02:42.024Z,42.67
2022-11-30T01:03:43.459Z,42.10
2022-11-30T01:04:45.406Z,41.37
2022-11-30T01:05:47.307Z,44.10
2022-11-30T01:06:48.803Z,43.23
2022-11-30T01:07:50.639Z,44.70
2022-11-30T01:08:52.157Z,44.13
2022-11-30T01:09:53.621Z,44.77
2022-11-30T01:10:57.977Z,43.90
2022-11-30T01:11:59.454Z,48.33
2022-11-30T01:13:02.153Z,46.87
2022-11-30T01:14:03.632Z,50.47
2022-11-30T01:15:05.371Z,55.57
2022-11-30T01:16:15.879Z,50.87
2022-11-30T01:17:17.421Z,57.40
2022-11-30T01:18:18.853Z,55.03
2022-11-30T01:19:20.559Z,56.97
2022-11-30T01:20:22.448Z,59.57
2022-11-30T01:21:25.205Z,57.27
2022-11-30T01:22:26.817Z,54.77
2022-11-30T01:23:28.695Z,54.33
2022-11-30T01:24:30.344Z,57.83
2022-11-30T01:25:31.817Z,55.03
2022-11-30T01:26:33.375Z,53.93
2022-11-30T01:27:34.973Z,52.80
2022-11-30T01:28:36.542Z,53.67
2022-11-30T01:29:37.891Z,52.17
2022-11-30T01:30:39.712Z,56.20
2022-11-30T01:31:41.489Z,58.83
2022-11-30T01:32:43.085Z,58.67
2022-11-30T01:33:48.417Z,55.70
2022-11-30T01:34:49.871Z,51.20
2022-11-30T01:36:00.749Z,58.30
2022-11-30T01:37:02.223Z,60.07
2022-11-30T01:38:03.791Z,56.33
2022-11-30T01:39:07.325Z,56.33
2022-11-30T01:40:10.196Z,58.03
2022-11-30T01:41:13.099Z,59.70
2022-11-30T01:42:15.610Z,55.83
2022-11-30T01:43:18.884Z,49.47
2022-11-30T01:44:26.394Z,53.30
2022-11-30T01:45:27.814Z,54.60
2022-11-30T01:46:29.436Z,61.33
2022-11-30T01:47:46.020Z,57.53
2022-11-30T01:48:55.418Z,54.33
2022-11-30T01:50:08.532Z,55.47
2022-11-30T01:51:14.349Z,55.87
2022-11-30T01:52:19.252Z,58.00
2022-11-30T01:53:20.713Z,58.60
2022-11-30T01:54:24.187Z,55.63
2022-11-30T01:55:29.650Z,50.13
2022-11-30T01:56:31.096Z,55.73
2022-11-30T01:57:38.196Z,55.43
2022-11-30T01:58:39.673Z,59.27
2022-11-30T01:59:41.215Z,57.03
2022-11-30T02:00:44.261Z,50.10
2022-11-30T02:01:46.623Z,54.40
2022-11-30T02:03:03.317Z,54.57
2022-11-30T02:04:11.359Z,52.80
2022-11-30T02:05:13.322Z,53.27
2022-11-30T02:06:15.250Z,55.27
2022-11-30T02:07:16.898Z,48.80
2022-11-30T02:08:19.132Z,51.63
2022-11-30T02:09:21.615Z,51.10
2022-11-30T02:10:28.696Z,54.90
2022-11-30T02:11:30.377Z,52.40
2022-11-30T02:12:45.083Z,52.73
2022-11-30T02:13:55.715Z,54.37
2022-11-30T02:14:59.642Z,52.50
2022-11-30T02:16:14.567Z,48.37
2022-11-30T02:17:42.357Z,46.40
2022-11-30T02:18:53.093Z,50.43
2022-11-30T02:20:13.875Z,47.93
2022-11-30T02:21:15.493Z,48.23
2022-11-30T02:22:40.334Z,45.47
2022-11-30T02:23:49.844Z,46.93
2022-11-30T02:25:01.524Z,43.63
2022-11-30T02:26:14.948Z,51.83
2022-11-30T02:27:21.997Z,50.20
2022-11-30T02:28:42.221Z,50.37
2022-11-30T02:29:56.072Z,45.13
2022-11-30T02:30:59.299Z,48.03
2022-11-30T02:32:12.198Z,46.23
2022-11-30T02:33:15.216Z,49.80
2022-11-30T02:34:17.945Z,44.70
2022-11-30T02:35:20.741Z,46.63
2022-11-30T02:36:22.849Z,50.07
2022-11-30T02:37:24.745Z,48.43
2022-11-30T02:38:26.847Z,49.70
2022-11-30T02:39:29.802Z,48.23
2022-11-30T02:40:31.361Z,44.27
2022-11-30T02:41:38.290Z,46.33
2022-11-30T02:42:40.655Z,43.47
2022-11-30T02:43:42.348Z,41.30
2022-11-30T02:44:46.273Z,44.93
2022-11-30T02:45:50.850Z,43.47
2022-11-30T02:46:58.581Z,40.97
2022-11-30T02:48:08.003Z,42.33
2022-11-30T02:49:14.126Z,45.73
2022-11-30T02:50:17.087Z,40.23
2022-11-30T02:51:20.115Z,44.70
2022-11-30T02:52:24.059Z,41.83
2022-11-30T02:53:25.514Z,43.17
2022-11-30T02:54:26.845Z,44.33
2022-11-30T02:55:28.490Z,46.33
2022-11-30T02:56:29.950Z,43.77
2022-11-30T02:57:31.271Z,44.70
2022-11-30T02:58:32.734Z,44.40
2022-11-30T02:59:34.226Z,43.37
2022-11-30T03:00:35.724Z,41.93
2022-11-30T03:01:37.627Z,40.93
2022-11-30T03:02:39.513Z,40.73
2022-11-30T03:03:40.857Z,41.20
2022-11-30T03:04:42.238Z,42.80
2022-11-30T03:05:43.642Z,42.40
2022-11-30T03:06:45.060Z,43.90
2022-11-30T03:07:46.516Z,43.80
2022-11-30T03:08:47.978Z,41.77
2022-11-30T03:09:49.377Z,44.67
2022-11-30T03:10:50.713Z,46.37
2022-11-30T03:11:52.092Z,42.03
2022-11-30T03:12:56.949Z,46.60
2022-11-30T03:13:58.388Z,45.70
2022-11-30T03:14:59.706Z,47.57
2022-11-30T03:16:08.473Z,45.60
2022-11-30T03:17:09.824Z,44.10
2022-11-30T03:18:11.151Z,42.67
2022-11-30T03:19:12.635Z,43.53
2022-11-30T03:20:13.952Z,43.63
2022-11-30T03:21:15.294Z,46.00
2022-11-30T03:22:16.630Z,46.10
2022-11-30T03:23:17.920Z,45.77
2022-11-30T03:24:19.226Z,42.00
2022-11-30T03:25:20.601Z,46.87
2022-11-30T03:26:22.111Z,46.30
2022-11-30T03:27:23.616Z,45.80
2022-11-30T03:28:25.431Z,40.43
2022-11-30T03:29:27.086Z,43.73
2022-11-30T03:30:28.483Z,42.07
2022-11-30T03:31:29.910Z,44.83
2022-11-30T03:32:31.497Z,42.80
2022-11-30T03:33:32.823Z,47.20
2022-11-30T03:34:34.158Z,44.17
2022-11-30T03:35:35.520Z,43.60
2022-11-30T03:36:36.850Z,45.80
2022-11-30T03:37:38.201Z,42.17
2022-11-30T03:38:39.941Z,42.63
2022-11-30T03:39:41.272Z,45.37
2022-11-30T03:40:42.573Z,45.87
2022-11-30T03:41:43.957Z,42.23
2022-11-30T03:42:45.398Z,41.10
2022-11-30T03:43:46.914Z,44.00
2022-11-30T03:44:48.415Z,43.27
2022-11-30T03:45:50.090Z,44.30
2022-11-30T03:46:51.432Z,46.20
2022-11-30T03:47:52.824Z,45.60
2022-11-30T03:48:54.317Z,45.37
2022-11-30T03:49:55.826Z,46.23
2022-11-30T03:50:57.429Z,47.03
2022-11-30T03:51:58.840Z,46.00
2022-11-30T03:53:00.489Z,47.60
2022-11-30T03:54:02.253Z,40.63
2022-11-30T03:55:04.199Z,47.13
2022-11-30T03:56:07.227Z,49.50
2022-11-30T03:57:08.947Z,42.30
2022-11-30T03:58:10.652Z,43.23
2022-11-30T03:59:12.553Z,43.70
2022-11-30T04:00:14.229Z,44.30
2022-11-30T04:01:16.897Z,45.97
2022-11-30T04:02:18.584Z,47.57
2022-11-30T04:03:20.053Z,47.77
2022-11-30T04:04:21.579Z,44.13
2022-11-30T04:05:23.074Z,44.27
2022-11-30T04:06:24.534Z,43.90
2022-11-30T04:07:25.986Z,50.83
2022-11-30T04:08:27.860Z,46.90
2022-11-30T04:09:29.349Z,43.83
2022-11-30T04:10:30.844Z,42.47
2022-11-30T04:11:32.614Z,42.63
2022-11-30T04:12:34.274Z,49.27
2022-11-30T04:13:36.531Z,47.30
2022-11-30T04:14:38.047Z,41.60
2022-11-30T04:15:39.404Z,45.73
2022-11-30T04:16:40.861Z,45.83
2022-11-30T04:17:42.217Z,44.93
2022-11-30T04:18:43.587Z,46.17
2022-11-30T04:19:44.924Z,40.47
2022-11-30T04:20:46.284Z,46.37
2022-11-30T04:21:47.710Z,44.13
2022-11-30T04:22:49.016Z,44.20
2022-11-30T04:23:50.329Z,44.83
2022-11-30T04:24:51.631Z,47.00
2022-11-30T04:25:52.959Z,52.10
2022-11-30T04:26:54.527Z,46.50
2022-11-30T04:27:56.114Z,51.00
2022-11-30T04:28:57.468Z,45.57
2022-11-30T04:29:58.959Z,52.50
2022-11-30T04:31:01.072Z,45.90
2022-11-30T04:32:02.574Z,47.60
2022-11-30T04:33:04.298Z,56.00
2022-11-30T04:34:05.883Z,48.03
2022-11-30T04:35:07.569Z,45.77
2022-11-30T04:36:15.689Z,53.00
2022-11-30T04:37:17.044Z,50.30
2022-11-30T04:38:18.539Z,48.30
2022-11-30T04:39:20.089Z,44.73
2022-11-30T04:40:21.594Z,48.73
2022-11-30T04:41:23.156Z,52.47
2022-11-30T04:42:24.655Z,48.77
2022-11-30T04:43:26.149Z,53.97
2022-11-30T04:44:27.424Z,54.30
2022-11-30T04:45:32.546Z,52.07
2022-11-30T04:46:37.063Z,50.37
2022-11-30T04:47:38.494Z,53.17
2022-11-30T04:48:39.868Z,47.20
2022-11-30T04:49:41.247Z,52.67
2022-11-30T04:50:42.744Z,49.33
2022-11-30T04:51:44.363Z,48.47
2022-11-30T04:52:46.906Z,50.07
2022-11-30T04:53:49.470Z,52.77
2022-11-30T04:54:52.329Z,47.47
2022-11-30T04:55:54.488Z,54.40
2022-11-30T04:56:56.629Z,46.13
2022-11-30T04:57:58.682Z,52.00
2022-11-30T04:59:01.169Z,46.87
2022-11-30T05:00:03.915Z,51.97
2022-11-30T05:01:05.691Z,46.57
2022-11-30T05:02:07.313Z,52.73
2022-11-30T05:03:08.903Z,53.27
2022-11-30T05:04:10.360Z,50.73
2022-11-30T05:05:11.869Z,53.63
2022-11-30T05:06:13.266Z,48.13
2022-11-30T05:07:14.721Z,53.17
2022-11-30T05:08:16.136Z,50.27
2022-11-30T05:09:17.671Z,53.03
2022-11-30T05:10:19.175Z,49.63
2022-11-30T05:11:20.779Z,48.00
2022-11-30T05:12:22.275Z,50.10
2022-11-30T05:13:24.398Z,56.07
2022-11-30T05:14:26.179Z,53.30
2022-11-30T05:15:27.624Z,53.47
2022-11-30T05:16:29.071Z,51.40
2022-11-30T05:17:30.447Z,55.57
2022-11-30T05:18:31.961Z,54.87
2022-11-30T05:19:33.284Z,49.67
2022-11-30T05:20:34.740Z,60.27
2022-11-30T05:21:36.240Z,58.73
2022-11-30T05:22:37.663Z,55.40
2022-11-30T05:23:39.062Z,57.73
2022-11-30T05:24:40.438Z,55.27
2022-11-30T05:25:42.042Z,53.30
2022-11-30T05:26:43.525Z,56.07
2022-11-30T05:27:45.194Z,56.27
2022-11-30T05:28:46.579Z,56.50
2022-11-30T05:29:47.892Z,60.40
2022-11-30T05:30:49.302Z,59.67
2022-11-30T05:31:50.809Z,60.50
2022-11-30T05:32:52.820Z,63.23
2022-11-30T05:33:54.241Z,53.20
2022-11-30T05:34:55.954Z,60.30
2022-11-30T05:35:57.427Z,60.67
2022-11-30T05:37:00.364Z,56.93
2022-11-30T05:38:01.817Z,56.27
2022-11-30T05:39:03.437Z,61.93
2022-11-30T05:40:05.401Z,64.43
2022-11-30T05:41:06.712Z,53.67
2022-11-30T05:42:08.031Z,55.97
2022-11-30T05:43:09.512Z,58.90
2022-11-30T05:44:11.528Z,52.60
2022-11-30T05:45:12.887Z,59.77
2022-11-30T05:46:14.597Z,53.17
2022-11-30T05:47:16.558Z,53.80
2022-11-30T05:48:23.907Z,59.97
2022-11-30T05:49:25.510Z,58.30
2022-11-30T05:50:27.113Z,60.83
2022-11-30T05:51:28.433Z,61.57
2022-11-30T05:52:29.884Z,62.60
2022-11-30T05:53:31.279Z,62.37
2022-11-30T05:54:35.074Z,55.47
2022-11-30T05:55:37.220Z,58.07
2022-11-30T05:56:38.822Z,51.40
2022-11-30T05:57:40.432Z,58.10
2022-11-30T05:58:42.155Z,53.77
2022-11-30T05:59:43.551Z,56.97
2022-11-30T06:00:44.928Z,52.40
2022-11-30T06:01:46.605Z,56.03
2022-11-30T06:02:48.087Z,55.70
2022-11-30T06:03:49.870Z,59.30
2022-11-30T06:04:51.285Z,59.00
2022-11-30T06:05:52.764Z,54.30
2022-11-30T06:06:55.620Z,51.23
2022-11-30T06:07:59.293Z,53.37
2022-11-30T06:09:00.718Z,61.03
2022-11-30T06:10:02.135Z,52.30
2022-11-30T06:11:03.448Z,57.37
2022-11-30T06:12:05.200Z,60.73
2022-11-30T06:13:08.207Z,53.40
2022-11-30T06:14:09.546Z,55.40
2022-11-30T06:15:10.984Z,61.60
2022-11-30T06:16:12.409Z,56.23
2022-11-30T06:17:13.787Z,56.77
2022-11-30T06:18:15.074Z,54.00
2022-11-30T06:19:16.410Z,50.83
2022-11-30T06:20:17.760Z,57.27
2022-11-30T06:21:24.111Z,55.10
2022-11-30T06:22:25.990Z,59.03
2022-11-30T06:23:27.345Z,55.13
2022-11-30T06:24:28.663Z,52.13
2022-11-30T06:25:29.986Z,55.10
2022-11-30T06:26:31.296Z,55.20
2022-11-30T06:27:32.655Z,58.03
2022-11-30T06:28:34.898Z,58.43
2022-11-30T06:29:36.214Z,58.33
2022-11-30T06:30:37.556Z,61.53
2022-11-30T06:31:38.922Z,62.07
2022-11-30T06:32:40.424Z,61.03
2022-11-30T06:33:42.249Z,58.23
2022-11-30T06:34:43.639Z,61.53
2022-11-30T06:35:46.240Z,57.10
2022-11-30T06:36:47.559Z,55.37
2022-11-30T06:37:49.194Z,55.40
2022-11-30T06:38:59.186Z,51.83
2022-11-30T06:40:08.312Z,57.27
2022-11-30T06:41:10.313Z,50.37
2022-11-30T06:42:11.712Z,50.57
2022-11-30T06:43:13.135Z,52.93
2022-11-30T06:44:14.524Z,50.57
2022-11-30T06:45:15.884Z,50.40
2022-11-30T06:46:17.523Z,48.67
2022-11-30T06:47:18.984Z,48.43
2022-11-30T06:48:22.878Z,51.97
2022-11-30T06:49:24.262Z,46.93
2022-11-30T06:50:25.841Z,47.10
2022-11-30T06:51:27.196Z,50.10
2022-11-30T06:52:29.826Z,56.07
2022-11-30T06:53:31.146Z,56.87
2022-11-30T06:54:32.541Z,48.40
2022-11-30T06:55:35.352Z,50.63
2022-11-30T06:56:36.749Z,55.40
2022-11-30T06:57:38.139Z,54.20
2022-11-30T06:58:39.824Z,56.00
2022-11-30T06:59:43.911Z,56.40
2022-11-30T07:00:45.468Z,51.67
2022-11-30T07:01:46.853Z,52.63
2022-11-30T07:02:48.216Z,52.83
2022-11-30T07:03:49.956Z,54.13
2022-11-30T07:04:51.476Z,45.70
2022-11-30T07:05:54.114Z,46.57
2022-11-30T07:06:56.480Z,48.20
2022-11-30T07:07:57.902Z,53.90
2022-11-30T07:08:59.378Z,48.83
2022-11-30T07:10:00.822Z,49.23
2022-11-30T07:11:02.254Z,53.03
2022-11-30T07:12:04.181Z,52.83
2022-11-30T07:13:05.485Z,50.97
2022-11-30T07:14:06.834Z,54.20
2022-11-30T07:15:08.579Z,52.20
2022-11-30T07:16:10.996Z,45.93
2022-11-30T07:17:12.368Z,48.73
2022-11-30T07:18:14.030Z,47.77
2022-11-30T07:19:15.380Z,53.87
2022-11-30T07:20:16.751Z,49.97
2022-11-30T07:21:18.081Z,45.43
2022-11-30T07:22:19.424Z,46.90
2022-11-30T07:23:39.259Z,55.30
2022-11-30T07:24:59.354Z,46.03
2022-11-30T07:26:09.188Z,44.00
2022-11-30T07:27:10.488Z,45.33
2022-11-30T07:28:24.184Z,42.80
2022-11-30T07:29:38.733Z,46.10
2022-11-30T07:30:40.050Z,46.97
2022-11-30T07:31:41.562Z,49.43
2022-11-30T07:32:42.898Z,49.87
2022-11-30T07:33:44.256Z,48.03
2022-11-30T07:34:46.168Z,53.97
2022-11-30T07:35:47.793Z,52.90
2022-11-30T07:36:49.102Z,52.20
2022-11-30T07:37:50.548Z,54.47
2022-11-30T07:38:52.191Z,56.03
2022-11-30T07:39:53.536Z,59.27
2022-11-30T07:40:54.883Z,54.57
2022-11-30T07:41:56.996Z,57.37
2022-11-30T07:43:01.948Z,55.47
2022-11-30T07:44:04.318Z,57.97
2022-11-30T07:45:06.018Z,60.83
2022-11-30T07:46:07.946Z,57.27
2022-11-30T07:47:09.262Z,62.57
2022-11-30T07:48:10.665Z,63.87
2022-11-30T07:49:12.054Z,68.87
2022-11-30T07:50:13.354Z,76.13
2022-11-30T07:51:16.564Z,70.63
2022-11-30T07:52:17.934Z,63.53
2022-11-30T07:53:19.318Z,70.83
2022-11-30T07:54:20.664Z,76.73
2022-11-30T07:55:23.820Z,70.37
2022-11-30T07:56:25.743Z,71.07
2022-11-30T07:57:27.329Z,78.20
2022-11-30T07:58:28.994Z,75.13
2022-11-30T07:59:30.440Z,75.27
2022-11-30T08:00:31.869Z,65.53
2022-11-30T08:01:33.605Z,75.23
2022-11-30T08:02:35.010Z,72.37
2022-11-30T08:03:37.470Z,72.40
2022-11-30T08:04:38.987Z,72.03
2022-11-30T08:05:40.398Z,67.43
2022-11-30T08:06:41.740Z,70.10
2022-11-30T08:07:43.095Z,61.87
2022-11-30T08:08:44.993Z,73.37
2022-11-30T08:09:46.458Z,67.23
2022-11-30T08:10:47.819Z,64.80
2022-11-30T08:11:49.994Z,65.87
2022-11-30T08:12:51.305Z,71.93
2022-11-30T08:13:52.969Z,65.30
2022-11-30T08:15:19.394Z,69.00
2022-11-30T08:16:17.230Z,65.93
2022-11-30T08:17:18.643Z,66.00
2022-11-30T08:18:19.971Z,67.23
2022-11-30T08:19:21.251Z,64.90
2022-11-30T08:20:23.151Z,61.63
2022-11-30T08:21:24.570Z,66.37
2022-11-30T08:22:25.900Z,70.60
2022-11-30T08:23:30.593Z,64.70
2022-11-30T08:24:32.022Z,64.43
2022-11-30T08:25:34.331Z,60.57
2022-11-30T08:26:35.630Z,57.93
2022-11-30T08:27:36.971Z,64.23
2022-11-30T08:28:38.549Z,61.33
2022-11-30T08:29:39.893Z,64.53
2022-11-30T08:30:41.372Z,67.87
2022-11-30T08:31:42.878Z,66.40
2022-11-30T08:32:44.320Z,67.07
2022-11-30T08:33:45.892Z,66.40
2022-11-30T08:34:47.335Z,60.60
2022-11-30T08:35:48.896Z,64.40
2022-11-30T08:36:52.168Z,63.97
2022-11-30T08:37:53.592Z,67.67
2022-11-30T08:38:56.696Z,64.17
2022-11-30T08:39:58.084Z,63.73
2022-11-30T08:40:59.458Z,65.07
2022-11-30T08:42:01.237Z,61.70
2022-11-30T08:43:02.578Z,57.23
2022-11-30T08:44:03.947Z,60.27
2022-11-30T08:45:05.523Z,60.37
2022-11-30T08:46:34.583Z,56.77
2022-11-30T08:47:30.923Z,58.43
2022-11-30T08:48:32.296Z,55.77
2022-11-30T08:49:33.631Z,55.63
2022-11-30T08:50:34.961Z,51.43
2022-11-30T08:52:00.832Z,56.97
2022-11-30T08:53:00.529Z,55.70
2022-11-30T08:54:06.117Z,56.03
2022-11-30T08:55:08.732Z,59.60
2022-11-30T08:56:14.546Z,57.70
2022-11-30T08:57:17.384Z,47.93
2022-11-30T08:58:18.721Z,56.67
2022-11-30T08:59:20.057Z,54.80
2022-11-30T09:00:21.499Z,57.17
2022-11-30T09:01:27.096Z,54.00
2022-11-30T09:02:31.279Z,51.60
2022-11-30T09:03:32.726Z,50.67
2022-11-30T09:04:34.084Z,51.13
2022-11-30T09:05:35.383Z,49.93
2022-11-30T09:06:36.699Z,48.33
2022-11-30T09:07:38.080Z,53.17
2022-11-30T09:08:41.223Z,51.37
2022-11-30T09:09:42.583Z,46.00
2022-11-30T09:10:43.956Z,49.30
2022-11-30T09:11:45.256Z,51.23
2022-11-30T09:12:46.555Z,52.50
2022-11-30T09:13:48.568Z,48.53
2022-11-30T09:14:57.373Z,48.50
2022-11-30T09:15:59.591Z,50.97
2022-11-30T09:17:00.935Z,55.73
2022-11-30T09:18:02.253Z,52.87
2022-11-30T09:19:03.617Z,58.93
2022-11-30T09:20:05.349Z,55.03
2022-11-30T09:21:08.783Z,58.17
2022-11-30T09:22:10.395Z,53.73
2022-11-30T09:23:11.683Z,50.90
2022-11-30T09:24:13.013Z,52.50
2022-11-30T09:25:14.421Z,48.03
2022-11-30T09:26:17.845Z,53.63
2022-11-30T09:27:19.206Z,47.80
2022-11-30T09:28:20.593Z,55.10
2022-11-30T09:29:21.935Z,52.77
2022-11-30T09:30:23.298Z,46.57
2022-11-30T09:31:25.790Z,47.20
2022-11-30T09:32:27.580Z,49.13
2022-11-30T09:33:29.066Z,42.93
2022-11-30T09:34:30.417Z,49.53
2022-11-30T09:35:31.729Z,50.77
2022-11-30T09:36:34.021Z,45.17
2022-11-30T09:37:35.471Z,49.23
2022-11-30T09:38:37.249Z,46.67
2022-11-30T09:39:38.604Z,45.67
2022-11-30T09:40:40.961Z,44.93
2022-11-30T09:42:00.509Z,45.50
2022-11-30T09:43:10.670Z,46.40
2022-11-30T09:44:11.952Z,47.10
2022-11-30T09:45:24.956Z,45.10
2022-11-30T09:46:30.249Z,53.80
2022-11-30T09:47:32.210Z,44.93
2022-11-30T09:48:49.457Z,43.47
2022-11-30T09:49:51.279Z,45.50
2022-11-30T09:50:53.293Z,44.47
2022-11-30T09:51:55.423Z,42.13
2022-11-30T09:53:07.294Z,45.17
2022-11-30T09:54:12.083Z,44.57
2022-11-30T09:55:15.260Z,40.63
2022-11-30T09:56:35.991Z,38.63
2022-11-30T09:57:48.651Z,43.40
2022-11-30T09:58:55.321Z,37.07
2022-11-30T09:59:58.133Z,36.97
2022-11-30T10:01:02.429Z,36.33
2022-11-30T10:02:14.683Z,42.23
2022-11-30T10:03:16.582Z,40.40
2022-11-30T10:04:22.673Z,38.53
2022-11-30T10:05:34.274Z,34.47
2022-11-30T10:06:55.878Z,39.53
2022-11-30T10:08:19.320Z,38.50
2022-11-30T10:09:37.014Z,39.40
2022-11-30T10:10:43.953Z,37.40
2022-11-30T10:11:45.554Z,39.43
2022-11-30T10:12:53.681Z,39.83
2022-11-30T10:14:16.172Z,38.27
2022-11-30T10:15:36.082Z,36.33
2022-11-30T10:16:56.329Z,40.40
2022-11-30T10:18:14.785Z,41.20
2022-11-30T10:19:16.072Z,36.40
2022-11-30T10:20:23.539Z,39.20
2022-11-30T10:21:28.110Z,38.50
2022-11-30T10:22:29.701Z,37.67
2022-11-30T10:23:55.073Z,40.27
2022-11-30T10:24:56.563Z,36.20
2022-11-30T10:25:59.050Z,35.57
2022-11-30T10:27:03.961Z,37.17
2022-11-30T10:28:24.273Z,31.23
2022-11-30T10:29:36.922Z,31.93
2022-11-30T10:30:38.367Z,34.80
2022-11-30T10:31:40.633Z,34.57
2022-11-30T10:32:42.872Z,33.30
2022-11-30T10:33:48.376Z,33.10
2022-11-30T10:34:54.808Z,31.93
2022-11-30T10:35:57.451Z,33.50
2022-11-30T10:36:58.829Z,33.27
2022-11-30T10:38:02.920Z,33.63
2022-11-30T10:39:09.629Z,34.37
2022-11-30T10:40:16.218Z,31.07
2022-11-30T10:41:20.533Z,29.53
2022-11-30T10:42:27.935Z,29.67
2022-11-30T10:43:32.761Z,30.17
2022-11-30T10:44:36.195Z,25.47
2022-11-30T10:45:40.605Z,27.17
2022-11-30T10:46:45.517Z,26.07
2022-11-30T10:47:50.274Z,24.23
2022-11-30T10:48:54.199Z,26.40
2022-11-30T10:49:55.573Z,26.13
2022-11-30T10:50:57.494Z,25.47
2022-11-30T10:52:02.787Z,23.83
2022-11-30T10:53:04.233Z,25.83
2022-11-30T10:54:12.240Z,26.13
2022-11-30T10:55:17.738Z,26.67
2022-11-30T10:56:19.140Z,25.07
2022-11-30T10:57:21.526Z,25.53
2022-11-30T10:58:26.558Z,27.90
2022-11-30T10:59:46.127Z,29.43
2022-11-30T11:00:55.056Z,26.90
2022-11-30T11:01:56.435Z,28.30
2022-11-30T11:02:57.883Z,29.40
2022-11-30T11:04:28.812Z,29.83
2022-11-30T11:05:31.896Z,29.97
2022-11-30T11:06:36.505Z,29.60
2022-11-30T11:08:03.015Z,27.90
2022-11-30T11:09:24.112Z,26.07
2022-11-30T11:10:28.650Z,31.57
2022-11-30T11:11:29.997Z,31.27
2022-11-30T11:12:31.547Z,27.63
2022-11-30T11:13:40.099Z,25.63
2022-11-30T11:14:41.519Z,27.17
2022-11-30T11:15:55.375Z,27.67
2022-11-30T11:16:58.592Z,27.97
2022-11-30T11:18:12.526Z,26.43
2022-11-30T11:19:22.131Z,25.57
2022-11-30T11:20:29.137Z,26.40
2022-11-30T11:21:30.605Z,23.73
2022-11-30T11:22:31.960Z,24.90
2022-11-30T11:23:36.601Z,24.70
2022-11-30T11:24:37.997Z,24.77
2022-11-30T11:25:43.092Z,21.63
2022-11-30T11:26:51.324Z,22.20
2022-11-30T11:27:54.312Z,21.77
2022-11-30T11:28:57.286Z,23.40
2022-11-30T11:30:12.323Z,20.03
2022-11-30T11:31:32.866Z,22.10
2022-11-30T11:32:35.126Z,19.33
2022-11-30T11:33:36.442Z,20.50
2022-11-30T11:34:38.306Z,18.83
2022-11-30T11:35:44.347Z,21.50
2022-11-30T11:36:45.677Z,17.93
2022-11-30T11:37:51.327Z,19.63
2022-11-30T11:38:52.731Z,18.33
2022-11-30T11:40:12.917Z,19.70
2022-11-30T11:41:22.928Z,17.93
2022-11-30T11:42:24.471Z,19.87
2022-11-30T11:43:27.644Z,19.47
2022-11-30T11:44:29.401Z,16.10
2022-11-30T11:45:37.069Z,14.50
2022-11-30T11:46:58.743Z,15.30
2022-11-30T11:48:28.711Z,15.13
2022-11-30T11:49:32.667Z,15.73
2022-11-30T11:51:05.686Z,15.27
2022-11-30T11:52:00.956Z,17.03
2022-11-30T11:53:23.023Z,15.00
2022-11-30T11:54:27.500Z,14.73
2022-11-30T11:55:28.991Z,18.37
2022-11-30T11:56:32.278Z,17.67
2022-11-30T11:57:41.676Z,16.13
2022-11-30T11:58:45.606Z,18.00
2022-11-30T12:00:05.538Z,16.90
2022-11-30T12:01:38.573Z,16.73
2022-11-30T12:02:34.634Z,15.27
2022-11-30T12:03:43.912Z,13.57
2022-11-30T12:04:45.422Z,16.20
2022-11-30T12:06:01.668Z,15.07
2022-11-30T12:07:12.616Z,16.43
2022-11-30T12:08:19.290Z,13.70
2022-11-30T12:09:41.493Z,15.83
2022-11-30T12:11:00.870Z,16.30
2022-11-30T12:12:02.703Z,15.67
2022-11-30T12:13:11.215Z,14.07
2022-11-30T12:14:13.789Z,13.87
2022-11-30T12:15:15.215Z,13.03
2022-11-30T12:16:23.177Z,14.90
2022-11-30T12:17:45.012Z,14.73
2022-11-30T12:18:55.621Z,16.30
2022-11-30T12:20:06.449Z,14.03
2022-11-30T12:21:13.306Z,15.83
2022-11-30T12:22:33.265Z,13.97
2022-11-30T12:23:40.665Z,14.73
2022-11-30T12:24:51.907Z,14.07
2022-11-30T12:26:12.070Z,84.57
2022-11-30T12:27:13.817Z,49.97
2022-11-30T12:28:26.811Z,27.40
2022-11-30T12:29:43.104Z,14.87
2022-11-30T12:30:47.691Z,13.50
2022-11-30T12:32:08.015Z,14.87
2022-11-30T12:33:14.904Z,13.07
2022-11-30T12:34:17.195Z,12.50
2022-11-30T12:35:31.535Z,13.67
2022-11-30T12:36:49.526Z,13.80
2022-11-30T12:38:03.888Z,14.73
2022-11-30T12:39:09.369Z,12.63
2022-11-30T12:40:16.857Z,14.07
2022-11-30T12:41:24.575Z,12.60
2022-11-30T12:42:37.516Z,14.67
2022-11-30T12:43:38.891Z,21.57
2022-11-30T12:44:43.370Z,24.63
2022-11-30T12:45:45.049Z,20.47
2022-11-30T12:46:53.289Z,20.47
2022-11-30T12:48:13.465Z,16.53
2022-11-30T12:49:21.066Z,16.07
2022-11-30T12:50:25.219Z,13.20
2022-11-30T12:51:32.064Z,12.70
2022-11-30T12:52:33.606Z,12.87
2022-11-30T12:53:39.841Z,13.43
2022-11-30T12:54:50.508Z,12.93
2022-11-30T12:56:10.336Z,13.80
2022-11-30T12:57:19.251Z,14.00
2022-11-30T12:58:39.310Z,13.13
2022-11-30T13:00:05.813Z,11.37
2022-11-30T13:01:25.424Z,12.87
2022-11-30T13:02:45.630Z,11.80
2022-11-30T13:03:59.252Z,11.73
2022-11-30T13:05:04.074Z,13.27
2022-11-30T13:06:08.051Z,12.00
2022-11-30T13:07:16.441Z,11.93
2022-11-30T13:08:27.516Z,12.47
2022-11-30T13:09:33.718Z,12.13
2022-11-30T13:10:35.109Z,11.27
2022-11-30T13:11:38.164Z,13.67
2022-11-30T13:12:42.588Z,12.27
2022-11-30T13:13:48.991Z,15.53
2022-11-30T13:14:52.317Z,13.43
2022-11-30T13:15:54.024Z,12.63
2022-11-30T13:17:02.372Z,13.57
2022-11-30T13:18:04.057Z,12.73
2022-11-30T13:19:15.657Z,13.20
2022-11-30T13:20:23.156Z,16.00
2022-11-30T13:21:28.574Z,14.63
2022-11-30T13:22:51.443Z,17.17
2022-11-30T13:24:08.586Z,15.80
2022-11-30T13:25:09.892Z,17.00
2022-11-30T13:26:14.199Z,16.73
2022-11-30T13:27:22.581Z,18.03
2022-11-30T13:28:42.243Z,20.40
2022-11-30T13:29:58.977Z,18.73
2022-11-30T13:31:09.697Z,17.67
2022-11-30T13:32:33.755Z,16.63
2022-11-30T13:33:33.942Z,21.83
2022-11-30T13:34:35.241Z,19.73
2022-11-30T13:35:36.532Z,20.63
2022-11-30T13:36:39.494Z,20.73
2022-11-30T13:37:40.808Z,19.93
2022-11-30T13:38:42.212Z,22.93
2022-11-30T13:39:56.276Z,20.60
2022-11-30T13:40:59.505Z,20.17
2022-11-30T13:42:00.792Z,19.53
2022-11-30T13:43:02.113Z,18.97
2022-11-30T13:44:03.874Z,18.30
2022-11-30T13:45:14.259Z,20.67
2022-11-30T13:46:19.233Z,22.63
2022-11-30T13:47:36.319Z,26.53
2022-11-30T13:48:39.341Z,21.03